createdAt,value
2023-05-07T00:01:27.179Z,3.08
2023-05-07T00:03:54.003Z,3.65
2023-05-07T00:06:20.808Z,3.40
2023-05-07T00:08:47.398Z,3.50
2023-05-07T00:11:13.980Z,10.18
2023-05-07T00:13:40.784Z,7.43
2023-05-07T00:16:07.516Z,3.33
2023-05-07T00:18:34.163Z,2.55
2023-05-07T00:21:00.795Z,3.92
2023-05-07T00:23:27.448Z,7.43
2023-05-07T00:25:54.101Z,3.38
2023-05-07T00:28:20.636Z,10.73
2023-05-07T00:30:47.234Z,4.60
2023-05-07T00:33:13.883Z,3.97
2023-05-07T00:35:40.731Z,4.72
2023-05-07T00:38:07.287Z,5.38
2023-05-07T00:40:33.930Z,3.80
2023-05-07T00:43:01.066Z,4.15
2023-05-07T00:45:29.222Z,8.15
2023-05-07T00:47:58.410Z,4.43
2023-05-07T00:50:25.304Z,3.08
2023-05-07T00:52:52.115Z,3.00
2023-05-07T00:55:19.296Z,7.88
2023-05-07T00:57:46.431Z,6.05
2023-05-07T01:00:14.543Z,3.22
2023-05-07T01:02:41.899Z,4.05
2023-05-07T01:05:12.116Z,3.03
2023-05-07T01:07:41.707Z,3.80
2023-05-07T01:10:09.817Z,4.10
2023-05-07T01:12:38.466Z,3.80
2023-05-07T01:15:07.473Z,4.00
2023-05-07T01:17:39.171Z,3.47
2023-05-07T01:20:08.142Z,4.05
2023-05-07T01:22:39.606Z,3.83
2023-05-07T01:25:08.324Z,3.28
2023-05-07T01:27:36.477Z,4.40
2023-05-07T01:30:03.382Z,4.07
2023-05-07T01:32:38.991Z,4.38
2023-05-07T01:35:08.551Z,4.03
2023-05-07T01:37:35.293Z,3.15
2023-05-07T01:40:03.515Z,2.55
2023-05-07T01:42:30.864Z,3.70
2023-05-07T01:44:57.597Z,3.85
2023-05-07T01:47:25.718Z,4.10
2023-05-07T01:49:52.533Z,2.78
2023-05-07T01:52:19.095Z,3.72
2023-05-07T01:54:45.684Z,3.55
2023-05-07T01:57:12.294Z,4.13
2023-05-07T01:59:38.858Z,3.65
2023-05-07T02:02:05.551Z,4.32
2023-05-07T02:04:32.485Z,3.55
2023-05-07T02:06:59.164Z,2.83
2023-05-07T02:09:26.458Z,4.10
2023-05-07T02:11:53.047Z,3.05
2023-05-07T02:14:21.214Z,3.92
2023-05-07T02:16:48.040Z,2.90
2023-05-07T02:19:14.713Z,4.13
2023-05-07T02:21:41.420Z,2.55
2023-05-07T02:24:08.104Z,3.38
2023-05-07T02:26:35.274Z,3.03
2023-05-07T02:29:01.959Z,2.97
2023-05-07T02:31:28.566Z,2.92
2023-05-07T02:33:55.206Z,3.70
2023-05-07T02:36:21.833Z,2.95
2023-05-07T02:38:48.508Z,4.05
2023-05-07T02:41:15.154Z,2.70
2023-05-07T02:43:41.734Z,3.58
2023-05-07T02:46:09.918Z,3.45
2023-05-07T02:48:36.830Z,3.63
2023-05-07T02:51:04.246Z,3.70
2023-05-07T02:53:31.000Z,3.78
2023-05-07T02:55:59.109Z,2.97
2023-05-07T02:58:26.314Z,4.70
2023-05-07T03:00:53.353Z,7.28
2023-05-07T03:03:20.082Z,12.07
2023-05-07T03:05:46.772Z,13.07
2023-05-07T03:08:13.486Z,10.60
2023-05-07T03:10:40.174Z,3.92
2023-05-07T03:13:06.955Z,5.85
2023-05-07T03:15:33.797Z,10.23
2023-05-07T03:18:00.494Z,6.00
2023-05-07T03:20:27.275Z,10.93
2023-05-07T03:22:53.930Z,5.95
2023-05-07T03:25:20.479Z,4.30
2023-05-07T03:27:47.099Z,3.17
2023-05-07T03:30:14.060Z,3.10
2023-05-07T03:32:41.111Z,3.13
2023-05-07T03:35:08.617Z,7.35
2023-05-07T03:37:35.281Z,9.23
2023-05-07T03:40:01.892Z,5.40
2023-05-07T03:42:29.772Z,3.88
2023-05-07T03:44:56.858Z,2.95
2023-05-07T03:47:23.504Z,4.05
2023-05-07T03:49:51.404Z,3.40
2023-05-07T03:52:23.438Z,4.13
2023-05-07T03:57:16.786Z,3.47
2023-05-07T03:59:43.522Z,3.50
2023-05-07T04:02:10.240Z,3.63
2023-05-07T04:04:36.888Z,3.35
2023-05-07T04:07:04.156Z,3.42
2023-05-07T04:09:30.831Z,3.20
2023-05-07T04:11:57.407Z,5.28
2023-05-07T04:14:24.098Z,10.10
2023-05-07T04:16:50.877Z,9.30
2023-05-07T04:19:17.928Z,9.20
2023-05-07T04:21:44.550Z,9.75
2023-05-07T04:24:11.150Z,3.90
2023-05-07T04:26:37.749Z,9.40
2023-05-07T04:29:04.756Z,10.40
2023-05-07T04:31:31.666Z,11.18
2023-05-07T04:33:58.520Z,11.75
2023-05-07T04:36:28.591Z,8.55
2023-05-07T04:38:55.716Z,4.68
2023-05-07T04:41:22.437Z,5.55
2023-05-07T04:43:49.121Z,4.00
2023-05-07T04:46:15.863Z,7.07
2023-05-07T04:48:42.464Z,5.07
2023-05-07T04:51:09.092Z,4.25
2023-05-07T04:53:35.789Z,3.92
2023-05-07T04:56:02.429Z,3.85
2023-05-07T04:58:32.645Z,3.50
2023-05-07T05:01:00.434Z,8.65
2023-05-07T05:03:27.373Z,12.02
2023-05-07T05:05:54.178Z,11.32
2023-05-07T05:08:21.024Z,11.40
2023-05-07T05:10:49.722Z,9.30
2023-05-07T05:13:16.633Z,6.18
2023-05-07T05:15:43.492Z,4.30
2023-05-07T05:18:10.141Z,10.52
2023-05-07T05:20:36.977Z,10.02
2023-05-07T05:23:03.821Z,10.55
2023-05-07T05:25:30.690Z,10.50
2023-05-07T05:27:57.666Z,4.70
2023-05-07T05:30:24.457Z,8.93
2023-05-07T05:32:51.185Z,9.25
2023-05-07T05:35:17.964Z,5.43
2023-05-07T05:37:44.697Z,8.82
2023-05-07T05:40:12.072Z,9.90
2023-05-07T05:42:38.801Z,11.55
2023-05-07T05:45:06.418Z,4.05
2023-05-07T05:47:33.272Z,3.42
2023-05-07T05:49:59.970Z,10.48
2023-05-07T05:52:26.559Z,9.80
2023-05-07T05:54:53.181Z,9.93
2023-05-07T05:57:19.957Z,8.48
2023-05-07T05:59:48.469Z,4.65
2023-05-07T06:02:15.336Z,9.77
2023-05-07T06:04:43.564Z,11.27
2023-05-07T06:07:10.465Z,10.07
2023-05-07T06:09:37.022Z,10.65
2023-05-07T06:12:03.726Z,11.35
2023-05-07T06:14:30.710Z,11.88
2023-05-07T06:16:59.627Z,7.65
2023-05-07T06:19:27.734Z,11.90
2023-05-07T06:21:54.369Z,8.02
2023-05-07T06:24:21.071Z,10.98
2023-05-07T06:26:47.921Z,11.70
2023-05-07T06:29:14.589Z,8.15
2023-05-07T06:31:41.478Z,11.20
2023-05-07T06:34:09.940Z,10.90
2023-05-07T06:36:36.622Z,12.77
2023-05-07T06:39:03.238Z,11.20
2023-05-07T06:41:36.784Z,10.93
2023-05-07T06:44:06.209Z,10.45
2023-05-07T06:46:32.912Z,10.00
2023-05-07T06:48:59.535Z,5.35
2023-05-07T06:51:26.515Z,6.15
2023-05-07T06:53:53.246Z,5.88
2023-05-07T06:56:20.065Z,10.70
2023-05-07T06:58:46.767Z,10.65
2023-05-07T07:01:15.723Z,9.23
2023-05-07T07:03:42.457Z,7.65
2023-05-07T07:06:09.620Z,10.00
2023-05-07T07:08:36.231Z,10.13
2023-05-07T07:11:02.862Z,11.40
2023-05-07T07:13:29.944Z,10.02
2023-05-07T07:15:56.728Z,9.70
2023-05-07T07:18:23.401Z,10.45
2023-05-07T07:20:50.192Z,10.10
2023-05-07T07:23:16.771Z,10.27
2023-05-07T07:25:43.400Z,10.35
2023-05-07T07:28:10.044Z,9.13
2023-05-07T07:30:36.667Z,8.48
2023-05-07T07:33:04.412Z,12.73
2023-05-07T07:35:31.351Z,8.40
2023-05-07T07:37:58.284Z,10.05
2023-05-07T07:40:25.973Z,11.82
2023-05-07T07:42:53.814Z,11.85
2023-05-07T07:45:20.531Z,10.85
2023-05-07T07:47:47.247Z,12.40
2023-05-07T07:50:21.928Z,10.98
2023-05-07T07:52:58.925Z,9.35
2023-05-07T07:55:25.767Z,9.43
2023-05-07T07:57:52.362Z,10.20
2023-05-07T08:00:20.277Z,9.80
2023-05-07T08:02:47.174Z,8.68
2023-05-07T08:05:13.978Z,10.57
2023-05-07T08:07:40.594Z,9.73
2023-05-07T08:10:07.717Z,7.45
2023-05-07T08:12:34.345Z,9.10
2023-05-07T08:15:00.966Z,10.82
2023-05-07T08:17:27.621Z,9.57
2023-05-07T08:19:54.218Z,9.40
2023-05-07T08:22:20.787Z,9.38
2023-05-07T08:24:47.509Z,9.20
2023-05-07T08:27:14.093Z,8.25
2023-05-07T08:29:40.667Z,10.32
2023-05-07T08:32:07.274Z,8.23
2023-05-07T08:34:33.832Z,8.70
2023-05-07T08:37:00.474Z,8.48
2023-05-07T08:39:27.026Z,8.63
2023-05-07T08:41:57.212Z,10.35
2023-05-07T08:44:27.462Z,11.82
2023-05-07T08:46:55.468Z,12.27
2023-05-07T08:49:22.224Z,9.48
2023-05-07T08:51:49.225Z,11.55
2023-05-07T08:54:20.716Z,9.27
2023-05-07T08:56:47.571Z,11.07
2023-05-07T08:59:14.434Z,9.80
2023-05-07T09:01:41.158Z,10.27
2023-05-07T09:04:08.256Z,9.45
2023-05-07T09:06:35.708Z,10.00
2023-05-07T09:09:02.575Z,8.40
2023-05-07T09:11:29.193Z,10.10
2023-05-07T09:13:57.392Z,10.48
2023-05-07T09:16:27.346Z,11.32
2023-05-07T09:18:55.052Z,8.65
2023-05-07T09:21:23.799Z,11.13
2023-05-07T09:23:55.334Z,9.95
2023-05-07T09:26:25.887Z,8.57
2023-05-07T09:28:53.091Z,11.00
2023-05-07T09:31:21.395Z,10.00
2023-05-07T09:33:48.471Z,9.98
2023-05-07T09:36:15.185Z,8.82
2023-05-07T09:38:43.042Z,8.68
2023-05-07T09:41:11.651Z,10.15
2023-05-07T09:43:39.839Z,8.40
2023-05-07T09:46:14.411Z,8.27
2023-05-07T09:48:43.907Z,10.10
2023-05-07T09:51:23.101Z,9.27
2023-05-07T09:53:51.671Z,10.20
2023-05-07T09:56:19.583Z,9.93
2023-05-07T09:58:47.753Z,8.65
2023-05-07T10:01:15.030Z,9.70
2023-05-07T10:03:43.568Z,7.65
2023-05-07T10:06:11.687Z,6.38
2023-05-07T10:08:38.817Z,6.45
2023-05-07T10:11:10.129Z,5.30
2023-05-07T10:13:38.917Z,5.28
2023-05-07T10:16:06.541Z,5.15
2023-05-07T10:18:34.212Z,6.13
2023-05-07T10:21:18.417Z,6.63
2023-05-07T10:23:54.606Z,4.28
2023-05-07T10:26:23.324Z,5.28
2023-05-07T10:28:58.906Z,7.28
2023-05-07T10:31:44.510Z,5.68
2023-05-07T10:34:14.232Z,7.72
2023-05-07T10:36:41.138Z,6.90
2023-05-07T10:39:07.949Z,6.30
2023-05-07T10:41:34.618Z,6.60
2023-05-07T10:44:03.200Z,5.82
2023-05-07T10:46:30.509Z,6.78
2023-05-07T10:49:03.868Z,6.45
2023-05-07T10:51:32.434Z,5.85
2023-05-07T10:54:14.538Z,6.82
2023-05-07T10:56:44.678Z,6.85
2023-05-07T10:59:31.731Z,4.47
2023-05-07T11:02:00.489Z,4.35
2023-05-07T11:04:32.515Z,4.30
2023-05-07T11:07:25.797Z,4.07
2023-05-07T11:09:52.350Z,3.75
2023-05-07T11:12:37.411Z,3.67
2023-05-07T11:15:08.156Z,4.35
2023-05-07T11:17:37.431Z,4.05
2023-05-07T11:20:05.684Z,4.68
2023-05-07T11:22:32.679Z,4.43
2023-05-07T11:25:01.278Z,6.15
2023-05-07T11:27:28.373Z,4.75
2023-05-07T11:29:55.050Z,5.40
2023-05-07T11:32:25.606Z,6.97
2023-05-07T11:34:57.271Z,7.20
2023-05-07T11:37:25.469Z,6.28
2023-05-07T11:39:59.212Z,8.27
2023-05-07T11:42:39.897Z,5.25
2023-05-07T11:45:08.551Z,5.97
2023-05-07T11:47:35.587Z,4.75
2023-05-07T11:50:08.655Z,3.63
2023-05-07T11:52:36.156Z,3.10
2023-05-07T11:55:05.543Z,2.45
2023-05-07T11:57:34.335Z,3.25
2023-05-07T12:00:03.373Z,2.83
2023-05-07T12:02:30.034Z,2.40
2023-05-07T12:04:56.911Z,3.15
2023-05-07T12:07:24.956Z,3.92
2023-05-07T12:09:51.805Z,3.72
2023-05-07T12:12:18.624Z,3.65
2023-05-07T12:14:47.149Z,3.17
2023-05-07T12:17:15.450Z,4.45
2023-05-07T12:19:45.827Z,3.58
2023-05-07T12:22:13.655Z,3.05
2023-05-07T12:24:51.594Z,3.47
2023-05-07T12:27:18.738Z,4.38
2023-05-07T12:29:48.779Z,4.82
2023-05-07T12:32:19.602Z,3.03
2023-05-07T12:34:46.704Z,3.80
2023-05-07T12:37:14.049Z,4.55
2023-05-07T12:39:51.593Z,4.80
2023-05-07T12:42:24.591Z,4.05
2023-05-07T12:44:51.694Z,3.95
2023-05-07T12:47:18.240Z,3.42
2023-05-07T12:49:46.825Z,4.15
2023-05-07T12:52:14.158Z,3.83
2023-05-07T12:54:40.904Z,3.55
2023-05-07T12:57:09.722Z,3.75
2023-05-07T12:59:38.206Z,3.90
2023-05-07T13:02:06.315Z,3.38
2023-05-07T13:04:33.318Z,3.35
2023-05-07T13:07:01.358Z,3.50
2023-05-07T13:09:29.740Z,2.88
2023-05-07T13:11:56.543Z,3.53
2023-05-07T13:14:23.225Z,2.70
2023-05-07T13:16:50.472Z,2.80
2023-05-07T13:19:17.338Z,3.58
2023-05-07T13:21:44.120Z,3.97
2023-05-07T13:24:10.964Z,3.58
2023-05-07T13:26:37.550Z,3.95
2023-05-07T13:29:04.166Z,3.97
2023-05-07T13:31:31.118Z,7.45
2023-05-07T13:33:57.899Z,7.30
2023-05-07T13:36:24.550Z,9.23
2023-05-07T13:38:52.809Z,7.72
2023-05-07T13:41:19.576Z,7.00
2023-05-07T13:43:46.172Z,9.98
2023-05-07T13:46:12.960Z,9.15
2023-05-07T13:48:39.584Z,8.88
2023-05-07T13:51:06.315Z,9.38
2023-05-07T13:53:32.962Z,8.15
2023-05-07T13:55:59.585Z,8.20
2023-05-07T13:58:26.342Z,8.40
2023-05-07T14:00:53.109Z,7.90
2023-05-07T14:03:20.944Z,8.73
2023-05-07T14:05:50.250Z,7.90
2023-05-07T14:08:19.635Z,8.27
2023-05-07T14:10:47.218Z,8.10
2023-05-07T14:13:13.963Z,7.60
2023-05-07T14:15:41.414Z,7.38
2023-05-07T14:18:08.146Z,8.30
2023-05-07T14:20:37.707Z,6.38
2023-05-07T14:23:04.513Z,7.05
2023-05-07T14:25:31.261Z,7.32
2023-05-07T14:27:57.928Z,6.90
2023-05-07T14:30:25.594Z,6.30
2023-05-07T14:32:52.464Z,6.03
2023-05-07T14:35:19.135Z,8.40
2023-05-07T14:37:45.824Z,7.60
2023-05-07T14:40:12.916Z,7.97
2023-05-07T14:42:39.858Z,6.78
2023-05-07T14:45:07.123Z,5.85
2023-05-07T14:47:33.793Z,8.52
2023-05-07T14:50:02.206Z,8.27
2023-05-07T14:52:29.331Z,7.45
2023-05-07T14:54:55.982Z,9.73
2023-05-07T14:57:22.806Z,8.10
2023-05-07T14:59:50.226Z,7.18
2023-05-07T15:02:20.959Z,8.07
2023-05-07T15:04:48.312Z,11.77
2023-05-07T15:07:16.271Z,8.52
2023-05-07T15:09:44.418Z,8.18
2023-05-07T15:12:12.598Z,11.70
2023-05-07T15:14:40.296Z,9.50
2023-05-07T15:17:07.219Z,8.10
2023-05-07T15:19:34.093Z,9.75
2023-05-07T15:22:04.065Z,7.80
2023-05-07T15:24:31.916Z,8.18
2023-05-07T15:27:03.751Z,10.55
2023-05-07T15:31:58.139Z,8.80
2023-05-07T15:34:25.216Z,6.70
2023-05-07T15:36:51.879Z,6.65
2023-05-07T15:39:18.607Z,8.20
2023-05-07T15:41:45.245Z,7.70
2023-05-07T15:44:11.880Z,7.53
2023-05-07T15:46:38.621Z,6.10
2023-05-07T15:49:05.681Z,5.50
2023-05-07T15:51:34.985Z,6.78
2023-05-07T15:54:01.605Z,8.68
2023-05-07T15:56:28.209Z,5.88
2023-05-07T15:58:54.832Z,6.82
2023-05-07T16:01:21.868Z,7.65
2023-05-07T16:03:49.459Z,6.22
2023-05-07T16:06:16.531Z,5.15
2023-05-07T16:08:44.231Z,6.00
2023-05-07T16:11:11.045Z,6.18
2023-05-07T16:13:37.805Z,4.68
2023-05-07T16:16:05.510Z,4.00
2023-05-07T16:18:33.484Z,3.25
2023-05-07T16:21:00.988Z,4.25
2023-05-07T16:23:27.717Z,5.05
2023-05-07T16:25:54.363Z,5.68
2023-05-07T16:28:21.836Z,4.40
2023-05-07T16:30:50.475Z,4.15
2023-05-07T16:33:17.188Z,5.22
2023-05-07T16:35:47.654Z,4.45
2023-05-07T16:38:14.367Z,3.88
2023-05-07T16:40:41.107Z,3.00
2023-05-07T16:43:08.141Z,4.30
2023-05-07T16:45:34.742Z,3.08
2023-05-07T16:48:03.204Z,2.92
2023-05-07T16:50:30.250Z,3.25
2023-05-07T16:52:57.075Z,6.00
2023-05-07T16:55:23.730Z,3.92
2023-05-07T16:57:50.679Z,4.72
2023-05-07T17:00:18.128Z,3.75
2023-05-07T17:02:45.892Z,6.13
2023-05-07T17:05:12.931Z,7.00
2023-05-07T17:07:39.879Z,6.38
2023-05-07T17:10:06.987Z,5.90
2023-05-07T17:12:35.880Z,6.05
2023-05-07T17:15:03.422Z,7.25
2023-05-07T17:17:30.204Z,7.95
2023-05-07T17:19:57.384Z,6.18
2023-05-07T17:22:25.241Z,6.68
2023-05-07T17:24:52.435Z,6.68
2023-05-07T17:27:19.312Z,8.80
2023-05-07T17:29:46.013Z,8.82
2023-05-07T17:32:12.756Z,9.50
2023-05-07T17:34:39.504Z,9.35
2023-05-07T17:37:06.136Z,7.78
2023-05-07T17:39:32.804Z,8.23
2023-05-07T17:41:59.371Z,8.18
2023-05-07T17:44:25.978Z,8.48
2023-05-07T17:46:52.569Z,9.10
2023-05-07T17:49:19.223Z,9.60
2023-05-07T17:51:53.230Z,9.95
2023-05-07T17:54:21.546Z,8.70
2023-05-07T17:56:48.183Z,9.25
2023-05-07T17:59:14.964Z,9.05
2023-05-07T18:01:42.431Z,10.15
2023-05-07T18:04:09.159Z,10.13
2023-05-07T18:06:36.426Z,10.68
2023-05-07T18:09:03.125Z,10.00
2023-05-07T18:11:32.328Z,11.93
2023-05-07T18:13:59.313Z,11.88
2023-05-07T18:16:26.486Z,13.18
2023-05-07T18:18:53.243Z,10.15
2023-05-07T18:21:20.023Z,10.18
2023-05-07T18:23:51.396Z,9.80
2023-05-07T18:26:18.300Z,9.40
2023-05-07T18:28:46.179Z,9.35
2023-05-07T18:31:12.964Z,10.75
2023-05-07T18:33:39.623Z,10.43
2023-05-07T18:36:06.796Z,9.90
2023-05-07T18:38:34.080Z,11.18
2023-05-07T18:41:04.373Z,10.40
2023-05-07T18:43:31.231Z,8.13
2023-05-07T18:45:58.349Z,7.03
2023-05-07T18:48:25.293Z,7.97
2023-05-07T18:50:52.585Z,8.43
2023-05-07T18:53:19.350Z,7.53
2023-05-07T18:55:52.552Z,7.15
2023-05-07T18:58:20.281Z,6.13
2023-05-07T19:00:47.965Z,5.78
2023-05-07T19:03:15.999Z,6.35
2023-05-07T19:05:43.500Z,6.32
2023-05-07T19:08:10.497Z,6.15
2023-05-07T19:10:37.543Z,5.70
2023-05-07T19:13:05.599Z,5.68
2023-05-07T19:15:32.360Z,5.93
2023-05-07T19:17:59.150Z,5.95
2023-05-07T19:20:26.018Z,4.55
2023-05-07T19:22:53.135Z,4.85
2023-05-07T19:25:19.864Z,4.70
2023-05-07T19:27:48.161Z,5.68
2023-05-07T19:30:14.900Z,5.25
2023-05-07T19:32:41.626Z,4.95
2023-05-07T19:35:08.870Z,4.80
2023-05-07T19:37:35.548Z,4.65
2023-05-07T19:40:06.602Z,4.50
2023-05-07T19:42:33.386Z,4.47
2023-05-07T19:45:00.208Z,4.50
2023-05-07T19:47:26.993Z,4.40
2023-05-07T19:49:53.746Z,4.18
2023-05-07T19:52:20.333Z,5.75
2023-05-07T19:54:47.060Z,5.30
2023-05-07T19:57:14.375Z,4.05
2023-05-07T19:59:41.265Z,4.10
2023-05-07T20:02:08.027Z,5.15
2023-05-07T20:04:38.124Z,6.53
2023-05-07T20:07:05.907Z,9.32
2023-05-07T20:09:32.651Z,9.88
2023-05-07T20:11:59.458Z,3.97
2023-05-07T20:14:27.398Z,4.85
2023-05-07T20:16:54.343Z,7.65
2023-05-07T20:19:21.036Z,8.23
2023-05-07T20:21:47.674Z,7.43
2023-05-07T20:24:19.223Z,4.53
2023-05-07T20:26:54.009Z,8.30
2023-05-07T20:29:22.534Z,8.02
2023-05-07T20:31:49.294Z,9.57
2023-05-07T20:34:16.006Z,6.70
2023-05-07T20:36:42.693Z,3.88
2023-05-07T20:39:09.651Z,11.95
2023-05-07T20:41:36.248Z,9.23
2023-05-07T20:44:02.817Z,4.90
2023-05-07T20:46:30.195Z,6.38
2023-05-07T20:48:57.104Z,8.95
2023-05-07T20:51:23.812Z,6.28
2023-05-07T20:53:50.535Z,5.53
2023-05-07T20:56:20.000Z,6.35
2023-05-07T20:58:46.719Z,4.72
2023-05-07T21:01:13.514Z,5.00
2023-05-07T21:03:40.536Z,7.28
2023-05-07T21:06:07.397Z,5.55
2023-05-07T21:08:34.309Z,6.65
2023-05-07T21:11:01.526Z,5.10
2023-05-07T21:13:28.770Z,8.25
2023-05-07T21:15:55.653Z,3.97
2023-05-07T21:18:22.374Z,4.88
2023-05-07T21:20:49.257Z,4.63
2023-05-07T21:23:16.052Z,6.32
2023-05-07T21:25:47.263Z,5.82
2023-05-07T21:28:14.467Z,4.78
2023-05-07T21:30:41.199Z,5.78
2023-05-07T21:33:08.800Z,6.00
2023-05-07T21:35:36.472Z,6.70
2023-05-07T21:38:03.649Z,6.05
2023-05-07T21:40:30.704Z,6.60
2023-05-07T21:43:00.042Z,4.90
2023-05-07T21:45:27.318Z,5.18
2023-05-07T21:47:54.119Z,5.38
2023-05-07T21:50:22.144Z,4.47
2023-05-07T21:52:49.529Z,5.32
2023-05-07T21:55:18.202Z,4.97
2023-05-07T21:57:53.769Z,3.80
2023-05-07T22:00:29.555Z,4.30
2023-05-07T22:02:56.532Z,5.68
2023-05-07T22:05:23.478Z,4.57
2023-05-07T22:07:50.200Z,5.28
2023-05-07T22:10:21.851Z,5.80
2023-05-07T22:12:48.574Z,4.28
2023-05-07T22:15:15.639Z,4.90
2023-05-07T22:17:42.516Z,4.80
2023-05-07T22:20:10.325Z,4.63
2023-05-07T22:22:57.695Z,4.72
2023-05-07T22:25:25.149Z,6.05
2023-05-07T22:27:52.078Z,4.47
2023-05-07T22:30:19.119Z,4.70
2023-05-07T22:32:46.022Z,4.25
2023-05-07T22:35:12.809Z,4.80
2023-05-07T22:37:39.625Z,4.20
2023-05-07T22:40:07.105Z,4.30
2023-05-07T22:42:33.885Z,4.20
2023-05-07T22:45:00.966Z,4.72
2023-05-07T22:47:33.671Z,5.47
2023-05-07T22:50:01.079Z,4.72
2023-05-07T22:52:27.757Z,4.90
2023-05-07T22:54:54.485Z,4.55
2023-05-07T22:57:21.261Z,6.78
2023-05-07T22:59:47.901Z,5.38
2023-05-07T23:02:14.639Z,4.40
2023-05-07T23:04:41.366Z,6.13
2023-05-07T23:07:08.009Z,5.95
2023-05-07T23:09:34.707Z,5.82
2023-05-07T23:12:01.404Z,4.47
2023-05-07T23:14:28.060Z,4.68
2023-05-07T23:16:54.910Z,7.00
2023-05-07T23:19:21.777Z,5.03
2023-05-07T23:21:49.141Z,6.13
2023-05-07T23:24:16.441Z,4.57
2023-05-07T23:26:43.014Z,4.53
2023-05-07T23:29:09.704Z,5.88
2023-05-07T23:31:36.527Z,4.65
2023-05-07T23:34:03.465Z,7.47
2023-05-07T23:36:30.224Z,6.53
2023-05-07T23:38:56.928Z,6.88
2023-05-07T23:41:23.625Z,7.50
2023-05-07T23:43:50.511Z,6.85
2023-05-07T23:46:17.172Z,7.32
2023-05-07T23:48:43.792Z,9.70
2023-05-07T23:51:10.530Z,6.88
2023-05-07T23:53:37.321Z,9.88
2023-05-07T23:56:04.290Z,7.03
2023-05-07T23:58:31.135Z,7.15
